Airfield :







YOU CAN JOIN US ON...

 
LOGIN :

Register | Disclaimer

   EN    FR    IT 

 









Legend :    VFR   Marginal VFR   IFR   Intensive IFR   Very Intensive IFR
Visi :
Ceiling :
>= 8 km
>= 3000ft
5 to 8 km
1000 to 3000 ft
1500m to 5 km
500 to 1000 ft
800 to 1500m
200 to 500 ft
< 800m
< 200 ft
Symbols :   Thunderstorms  Fog  Heavy snow  Heavy precipitations  Wind > 20 kt






- Airport Elevation : 1411 ft
- IATA code : VLN


SVVA - Arturo Michelena Int.

CURRENT METAR :
  • 241602Z AUTO 07005KT NCD 30/17 Q1016

EXPIRED METARs :
  • 241600Z /////KT 9999 FEW016 31/20 Q1015
  • 241502Z AUTO 08008KT NCD 28/18 Q1016
  • 241402Z AUTO 06006KT NCD 26/18 Q1016

TAF TAF SVVA
Valid from the 24 at 12:00 until the 25 at 12:00 UTC


241321Z 2412/2512 36005KT 9999 FEO016 BKN250 TX33/2420Z TN23/2509Z
BECMG 2416/2420 09006KT SCT016 SCT100



MET'MAP, your aeronautical weather chart ! - Copyright ORBIFLY December 2007 - Disclaimer

ORBIFLY MET'MAP TEAM :

Programming & Development : Alexandra Zaïnal
Concept & original design : Baudouin d'Aumeries
Assistance for programming : Marc-Olivier Méhu
Technical & hardware support : Manuel Goepfert

Contact : metmap@orbifly.com




SOURCES & CREDITS :

   NOAA